Parryville, Pennsylvania
Current Conditions -  °F | °C
As of 3:51 PM on Saturday 22 Nov 2014 (Local Time) from KABE Reporting Station
Overcast Overcast  
Wind Chill: 36°   Ceiling: 4500
Heat Index: 42°   Visibility: 10mi
Dew Point: 14°   Wind: 10mph
Humidity: 32%   Direction: 230°SW
Pressure: 30.27"   Gusts: NA
Location:  40.82°N, 75.67°W
Report Text: KABE 222051Z 23009KT 10SM BKN045 OVC055 06/M10 A3027 RMK AO2 RAB13E24 SLP255 P0000 60000 T00561100 56017
Loading
Personal Weather Stations






























Interactive Weather Map New forecast layout! Learn more

10-Day Weather Forecast

Advertisements
Track Severe Weather on mobile